createdAt,value
2023-02-13T00:00:56.244Z,100.00
2023-02-13T00:03:42.888Z,100.00
2023-02-13T00:06:27.918Z,100.00
2023-02-13T00:09:12.911Z,100.00
2023-02-13T00:11:58.127Z,100.00
2023-02-13T00:14:43.454Z,100.00
2023-02-13T00:17:28.528Z,100.00
2023-02-13T00:20:13.626Z,100.00
2023-02-13T00:23:02.056Z,100.00
2023-02-13T00:25:47.339Z,100.00
2023-02-13T00:28:32.441Z,100.00
2023-02-13T00:31:20.268Z,100.00
2023-02-13T00:34:05.640Z,100.00
2023-02-13T00:36:50.665Z,100.00
2023-02-13T00:39:35.557Z,100.00
2023-02-13T00:42:20.906Z,100.00
2023-02-13T00:45:06.104Z,100.00
2023-02-13T00:47:51.318Z,100.00
2023-02-13T00:50:36.667Z,100.00
2023-02-13T00:53:34.167Z,100.00
2023-02-13T00:56:19.245Z,100.00
2023-02-13T00:59:04.163Z,100.00
2023-02-13T01:01:49.646Z,100.00
2023-02-13T01:04:35.017Z,100.00
2023-02-13T01:07:20.517Z,100.00
2023-02-13T01:10:06.661Z,100.00
2023-02-13T01:12:52.010Z,100.00
2023-02-13T01:15:37.567Z,100.00
2023-02-13T01:18:23.373Z,100.00
2023-02-13T01:21:15.180Z,100.00
2023-02-13T01:24:03.727Z,100.00
2023-02-13T01:26:48.758Z,100.00
2023-02-13T01:29:34.450Z,100.00
2023-02-13T01:32:20.087Z,100.00
2023-02-13T01:35:06.997Z,100.00
2023-02-13T01:37:52.071Z,100.00
2023-02-13T01:40:36.931Z,100.00
2023-02-13T01:43:22.355Z,100.00
2023-02-13T01:46:07.303Z,100.00
2023-02-13T01:48:56.086Z,100.00
2023-02-13T01:51:43.004Z,100.00
2023-02-13T01:54:33.669Z,100.00
2023-02-13T01:57:22.888Z,100.00
2023-02-13T02:00:14.512Z,100.00
2023-02-13T02:03:05.234Z,100.00
2023-02-13T02:05:51.624Z,100.00
2023-02-13T02:08:37.270Z,100.00
2023-02-13T02:11:47.278Z,100.00
2023-02-13T02:14:32.749Z,100.00
2023-02-13T02:17:19.626Z,100.00
2023-02-13T02:20:41.989Z,100.00
2023-02-13T02:23:42.457Z,100.00
2023-02-13T02:26:42.869Z,100.00
2023-02-13T02:29:49.818Z,100.00
2023-02-13T02:32:57.404Z,100.00
2023-02-13T02:36:01.124Z,100.00
2023-02-13T02:39:04.750Z,100.00
2023-02-13T02:42:10.136Z,100.00
2023-02-13T02:45:13.675Z,100.00
2023-02-13T02:48:17.852Z,100.00
2023-02-13T02:51:35.369Z,100.00
2023-02-13T02:54:34.672Z,100.00
2023-02-13T02:57:30.221Z,100.00
2023-02-13T03:00:22.393Z,100.00
2023-02-13T03:03:34.242Z,100.00
2023-02-13T03:06:34.520Z,100.00
2023-02-13T03:09:25.395Z,100.00
2023-02-13T03:12:15.092Z,100.00
2023-02-13T03:15:00.134Z,100.00
2023-02-13T03:17:45.553Z,100.00
2023-02-13T03:21:00.625Z,100.00
2023-02-13T03:24:23.377Z,100.00
2023-02-13T03:27:26.924Z,100.00
2023-02-13T03:30:35.557Z,100.00
2023-02-13T03:33:39.569Z,100.00
2023-02-13T03:36:59.437Z,100.00
2023-02-13T03:40:03.166Z,100.00
2023-02-13T03:42:56.657Z,100.00
2023-02-13T03:45:46.591Z,100.00
2023-02-13T03:48:36.297Z,100.00
2023-02-13T03:51:27.963Z,100.00
2023-02-13T03:54:39.670Z,100.00
2023-02-13T03:57:27.356Z,100.00
2023-02-13T04:00:14.838Z,100.00
2023-02-13T04:03:18.660Z,100.00
2023-02-13T04:06:09.361Z,100.00
2023-02-13T04:08:54.331Z,100.00
2023-02-13T04:11:49.634Z,100.00
2023-02-13T04:14:43.749Z,100.00
2023-02-13T04:17:59.180Z,100.00
2023-02-13T04:20:44.478Z,100.00
2023-02-13T04:23:29.786Z,100.00
2023-02-13T04:26:19.380Z,100.00
2023-02-13T04:29:05.741Z,100.00
2023-02-13T04:31:51.608Z,100.00
2023-02-13T04:34:37.789Z,100.00
2023-02-13T04:37:23.074Z,100.00
2023-02-13T04:40:09.107Z,100.00
2023-02-13T04:42:54.231Z,100.00
2023-02-13T04:45:39.226Z,100.00
2023-02-13T04:48:24.476Z,100.00
2023-02-13T04:51:09.356Z,100.00
2023-02-13T04:53:54.697Z,100.00
2023-02-13T04:56:39.864Z,100.00
2023-02-13T04:59:25.066Z,100.00
2023-02-13T05:02:10.431Z,100.00
2023-02-13T05:04:55.751Z,100.00
2023-02-13T05:07:41.992Z,100.00
2023-02-13T05:10:27.965Z,100.00
2023-02-13T05:13:13.397Z,100.00
2023-02-13T05:15:58.906Z,100.00
2023-02-13T05:18:44.421Z,100.00
2023-02-13T05:21:29.765Z,100.00
2023-02-13T05:24:14.719Z,100.00
2023-02-13T05:27:00.322Z,100.00
2023-02-13T05:29:45.579Z,100.00
2023-02-13T05:32:30.648Z,100.00
2023-02-13T05:35:15.693Z,100.00
2023-02-13T05:38:01.073Z,100.00
2023-02-13T05:40:46.187Z,100.00
2023-02-13T05:43:31.689Z,100.00
2023-02-13T05:46:17.006Z,100.00
2023-02-13T05:49:04.812Z,100.00
2023-02-13T05:51:50.418Z,100.00
2023-02-13T05:54:35.224Z,100.00
2023-02-13T05:57:20.254Z,100.00
2023-02-13T06:00:06.444Z,100.00
2023-02-13T06:02:51.843Z,100.00
2023-02-13T06:05:37.444Z,100.00
2023-02-13T06:08:23.522Z,100.00
2023-02-13T06:11:09.901Z,100.00
2023-02-13T06:13:55.173Z,100.00
2023-02-13T06:16:41.213Z,100.00
2023-02-13T06:19:26.297Z,100.00
2023-02-13T06:22:14.152Z,100.00
2023-02-13T06:24:59.349Z,100.00
2023-02-13T06:27:44.574Z,100.00
2023-02-13T06:30:31.182Z,100.00
2023-02-13T06:33:16.445Z,100.00
2023-02-13T06:36:01.471Z,100.00
2023-02-13T06:38:46.659Z,100.00
2023-02-13T06:41:31.572Z,100.00
2023-02-13T06:44:16.358Z,100.00
2023-02-13T06:47:01.846Z,100.00
2023-02-13T06:49:47.092Z,100.00
2023-02-13T06:52:32.493Z,100.00
2023-02-13T06:55:19.081Z,100.00
2023-02-13T06:58:04.225Z,100.00
2023-02-13T07:00:55.073Z,100.00
2023-02-13T07:03:40.170Z,100.00
2023-02-13T07:06:25.532Z,100.00
2023-02-13T07:09:11.038Z,100.00
2023-02-13T07:11:56.032Z,100.00
2023-02-13T07:14:41.472Z,100.00
2023-02-13T07:17:27.075Z,100.00
2023-02-13T07:20:12.731Z,100.00
2023-02-13T07:22:59.681Z,100.00
2023-02-13T07:25:44.761Z,100.00
2023-02-13T07:28:30.317Z,100.00
2023-02-13T07:31:16.206Z,100.00
2023-02-13T07:34:01.541Z,100.00
2023-02-13T07:36:46.770Z,100.00
2023-02-13T07:39:32.177Z,100.00
2023-02-13T07:42:17.116Z,100.00
2023-02-13T07:45:02.446Z,100.00
2023-02-13T07:47:48.062Z,100.00
2023-02-13T07:50:33.248Z,100.00
2023-02-13T07:53:18.486Z,100.00
2023-02-13T07:56:07.972Z,100.00
2023-02-13T07:58:53.013Z,100.00
2023-02-13T08:01:38.242Z,100.00
2023-02-13T08:04:25.415Z,100.00
2023-02-13T08:07:11.831Z,100.00
2023-02-13T08:09:56.931Z,100.00
2023-02-13T08:12:42.946Z,100.00
2023-02-13T08:15:28.034Z,100.00
2023-02-13T08:18:13.232Z,100.00
2023-02-13T08:20:58.508Z,100.00
2023-02-13T08:23:43.889Z,100.00
2023-02-13T08:26:31.429Z,100.00
2023-02-13T08:29:16.495Z,100.00
2023-02-13T08:32:01.543Z,100.00
2023-02-13T08:34:46.948Z,100.00
2023-02-13T08:37:32.177Z,100.00
2023-02-13T08:40:17.778Z,100.00
2023-02-13T08:43:04.374Z,100.00
2023-02-13T08:45:49.876Z,100.00
2023-02-13T08:48:35.332Z,100.00
2023-02-13T08:51:20.874Z,100.00
2023-02-13T08:54:06.122Z,100.00
2023-02-13T08:56:51.475Z,100.00
2023-02-13T08:59:36.763Z,100.00
2023-02-13T09:02:21.684Z,100.00
2023-02-13T09:05:07.226Z,100.00
2023-02-13T09:07:53.488Z,100.00
2023-02-13T09:10:38.293Z,100.00
2023-02-13T09:13:23.340Z,100.00
2023-02-13T09:16:08.652Z,100.00
2023-02-13T09:18:54.068Z,100.00
2023-02-13T09:21:38.980Z,100.00
2023-02-13T09:24:24.425Z,100.00
2023-02-13T09:27:09.973Z,100.00
2023-02-13T09:29:55.405Z,100.00
2023-02-13T09:32:41.812Z,100.00
2023-02-13T09:35:27.420Z,100.00
2023-02-13T09:38:12.672Z,100.00
2023-02-13T09:41:02.114Z,100.00
2023-02-13T09:43:50.466Z,100.00
2023-02-13T09:46:38.160Z,100.00
2023-02-13T09:49:28.490Z,100.00
2023-02-13T09:52:13.640Z,100.00
2023-02-13T09:54:58.914Z,100.00
2023-02-13T09:58:06.234Z,100.00
2023-02-13T10:00:55.977Z,100.00
2023-02-13T10:03:46.820Z,100.00
2023-02-13T10:06:37.377Z,100.00
2023-02-13T10:09:33.110Z,100.00
2023-02-13T10:12:46.254Z,100.00
2023-02-13T10:15:44.512Z,100.00
2023-02-13T10:18:42.877Z,100.00
2023-02-13T10:21:36.210Z,100.00
2023-02-13T10:24:44.565Z,100.00
2023-02-13T10:27:37.708Z,100.00
2023-02-13T10:30:30.730Z,100.00
2023-02-13T10:33:30.297Z,100.00
2023-02-13T10:36:23.416Z,100.00
2023-02-13T10:39:24.455Z,100.00
2023-02-13T10:42:15.628Z,100.00
2023-02-13T10:45:10.777Z,100.00
2023-02-13T10:48:08.122Z,100.00
2023-02-13T10:51:22.332Z,99.39
2023-02-13T10:54:16.549Z,97.80
2023-02-13T10:57:19.959Z,97.00
2023-02-13T11:00:32.733Z,96.60
2023-02-13T11:03:20.991Z,95.61
2023-02-13T11:06:09.046Z,95.39
2023-02-13T11:08:54.280Z,95.49
2023-02-13T11:11:42.047Z,95.66
2023-02-13T11:14:27.321Z,95.18
2023-02-13T11:17:18.186Z,94.06
2023-02-13T11:20:08.104Z,93.36
2023-02-13T11:22:53.542Z,92.89
2023-02-13T11:25:38.961Z,92.26
2023-02-13T11:28:25.590Z,92.38
2023-02-13T11:31:30.158Z,92.47
2023-02-13T11:34:34.310Z,91.40
2023-02-13T11:37:24.062Z,90.64
2023-02-13T11:40:31.750Z,90.49
2023-02-13T11:43:29.910Z,90.41
2023-02-13T11:46:24.165Z,89.01
2023-02-13T11:49:27.651Z,87.38
2023-02-13T11:52:26.242Z,87.60
2023-02-13T11:55:35.075Z,87.05
2023-02-13T11:58:25.954Z,85.16
2023-02-13T12:01:20.546Z,83.90
2023-02-13T12:04:16.531Z,82.11
2023-02-13T12:07:04.839Z,79.92
2023-02-13T12:09:59.434Z,79.51
2023-02-13T12:13:09.555Z,80.71
2023-02-13T12:16:26.853Z,79.74
2023-02-13T12:19:18.807Z,80.47
2023-02-13T12:22:32.713Z,80.79
2023-02-13T12:25:43.650Z,81.01
2023-02-13T12:28:54.430Z,80.26
2023-02-13T12:31:51.257Z,79.19
2023-02-13T12:35:10.804Z,77.71
2023-02-13T12:38:01.887Z,77.27
2023-02-13T12:40:53.233Z,75.14
2023-02-13T12:44:33.639Z,74.33
2023-02-13T12:47:30.150Z,76.09
2023-02-13T12:50:52.460Z,75.52
2023-02-13T12:54:11.813Z,74.27
2023-02-13T12:57:12.510Z,74.51
2023-02-13T13:00:26.026Z,72.35
2023-02-13T13:03:35.414Z,72.19
2023-02-13T13:06:35.810Z,72.36
2023-02-13T13:09:33.336Z,73.66
2023-02-13T13:12:30.746Z,72.41
2023-02-13T13:15:50.075Z,72.08
2023-02-13T13:18:54.250Z,72.49
2023-02-13T13:22:14.971Z,72.89
2023-02-13T13:25:24.702Z,72.50
2023-02-13T13:28:22.211Z,73.04
2023-02-13T13:31:08.398Z,71.49
2023-02-13T13:33:58.257Z,71.24
2023-02-13T13:36:50.233Z,71.68
2023-02-13T13:39:47.300Z,72.06
2023-02-13T13:42:41.756Z,71.17
2023-02-13T13:45:50.158Z,71.48
2023-02-13T13:48:54.517Z,71.20
2023-02-13T13:51:39.620Z,70.73
2023-02-13T13:54:33.157Z,70.70
2023-02-13T13:57:25.782Z,70.43
2023-02-13T14:00:14.014Z,70.09
2023-02-13T14:02:59.721Z,69.95
2023-02-13T14:06:12.451Z,68.77
2023-02-13T14:09:21.902Z,69.09
2023-02-13T14:12:46.795Z,69.50
2023-02-13T14:15:34.646Z,69.85
2023-02-13T14:18:23.838Z,70.49
2023-02-13T14:21:09.687Z,71.13
2023-02-13T14:23:55.179Z,72.63
2023-02-13T14:26:41.224Z,70.74
2023-02-13T14:29:29.966Z,70.60
2023-02-13T14:32:29.394Z,70.30
2023-02-13T14:35:22.619Z,70.01
2023-02-13T14:38:23.369Z,70.52
2023-02-13T14:41:46.802Z,69.95
2023-02-13T14:44:46.437Z,68.74
2023-02-13T14:47:37.233Z,67.38
2023-02-13T14:50:22.201Z,68.42
2023-02-13T14:53:16.818Z,69.56
2023-02-13T14:56:07.081Z,68.46
2023-02-13T14:59:15.772Z,67.50
2023-02-13T15:02:12.362Z,66.65
2023-02-13T15:05:00.038Z,66.93
2023-02-13T15:08:15.270Z,67.24
2023-02-13T15:11:00.865Z,68.02
2023-02-13T15:13:46.418Z,67.46
2023-02-13T15:16:31.903Z,68.53
2023-02-13T15:19:19.591Z,70.14
2023-02-13T15:22:06.359Z,70.53
2023-02-13T15:24:52.139Z,69.79
2023-02-13T15:27:46.592Z,68.77
2023-02-13T15:30:34.632Z,67.76
2023-02-13T15:33:22.602Z,68.08
2023-02-13T15:36:25.204Z,68.51
2023-02-13T15:39:17.057Z,67.73
2023-02-13T15:42:20.462Z,68.98
2023-02-13T15:45:13.066Z,70.93
2023-02-13T15:47:58.409Z,71.49
2023-02-13T15:50:44.280Z,73.21
2023-02-13T15:53:29.991Z,74.00
2023-02-13T15:56:15.326Z,74.40
2023-02-13T15:59:02.705Z,74.55
2023-02-13T16:01:50.888Z,74.56
2023-02-13T16:04:37.840Z,74.98
2023-02-13T16:07:23.061Z,75.23
2023-02-13T16:10:26.753Z,75.05
2023-02-13T16:13:18.014Z,75.62
2023-02-13T16:16:09.626Z,77.30
2023-02-13T16:18:54.846Z,77.93
2023-02-13T16:21:39.849Z,79.29
2023-02-13T16:24:26.743Z,80.26
2023-02-13T16:27:19.167Z,80.45
2023-02-13T16:30:19.296Z,81.29
2023-02-13T16:33:16.604Z,82.01
2023-02-13T16:36:11.041Z,82.71
2023-02-13T16:38:56.460Z,83.53
2023-02-13T16:41:41.442Z,84.02
2023-02-13T16:44:32.178Z,84.86
2023-02-13T16:47:23.402Z,85.76
2023-02-13T16:50:14.951Z,86.44
2023-02-13T16:53:03.281Z,86.86
2023-02-13T16:55:57.471Z,87.46
2023-02-13T16:58:42.869Z,87.72
2023-02-13T17:01:28.390Z,87.96
2023-02-13T17:04:22.650Z,88.42
2023-02-13T17:07:23.320Z,88.74
2023-02-13T17:10:23.023Z,88.73
2023-02-13T17:13:17.789Z,89.13
2023-02-13T17:16:02.838Z,89.64
2023-02-13T17:18:48.167Z,90.58
2023-02-13T17:21:33.648Z,91.61
2023-02-13T17:24:18.897Z,92.01
2023-02-13T17:27:04.187Z,92.42
2023-02-13T17:29:49.554Z,92.94
2023-02-13T17:32:36.242Z,93.59
2023-02-13T17:35:21.306Z,93.86
2023-02-13T17:38:08.722Z,94.54
2023-02-13T17:40:54.090Z,94.99
2023-02-13T17:43:39.193Z,95.17
2023-02-13T17:46:24.783Z,95.28
2023-02-13T17:49:10.104Z,95.34
2023-02-13T17:51:55.548Z,96.01
2023-02-13T17:54:41.214Z,95.91
2023-02-13T17:57:26.253Z,95.85
2023-02-13T18:00:12.035Z,95.98
2023-02-13T18:02:59.293Z,96.17
2023-02-13T18:05:48.168Z,95.70
2023-02-13T18:08:33.283Z,95.22
2023-02-13T18:11:18.663Z,95.71
2023-02-13T18:14:04.244Z,96.24
2023-02-13T18:16:49.238Z,96.95
2023-02-13T18:19:34.747Z,97.26
2023-02-13T18:22:19.935Z,98.20
2023-02-13T18:25:05.968Z,99.14
2023-02-13T18:27:51.247Z,99.21
2023-02-13T18:30:36.743Z,98.73
2023-02-13T18:33:21.930Z,98.17
2023-02-13T18:36:06.985Z,98.23
2023-02-13T18:38:52.403Z,98.78
2023-02-13T18:41:37.260Z,98.91
2023-02-13T18:44:28.433Z,99.15
2023-02-13T18:47:14.066Z,99.57
2023-02-13T18:49:59.584Z,99.22
2023-02-13T18:52:44.915Z,99.41
2023-02-13T18:55:30.438Z,99.33
2023-02-13T18:58:15.843Z,99.06
2023-02-13T19:01:09.157Z,98.81
2023-02-13T19:03:54.202Z,99.09
2023-02-13T19:06:40.805Z,99.22
2023-02-13T19:09:26.064Z,98.81
2023-02-13T19:12:11.730Z,97.86
2023-02-13T19:14:57.121Z,97.95
2023-02-13T19:17:42.242Z,98.40
2023-02-13T19:20:27.375Z,98.23
2023-02-13T19:23:12.834Z,97.55
2023-02-13T19:25:58.399Z,98.26
2023-02-13T19:28:43.884Z,99.55
2023-02-13T19:31:31.138Z,100.00
2023-02-13T19:34:16.487Z,100.00
2023-02-13T19:37:01.533Z,100.00
2023-02-13T19:39:46.992Z,100.00
2023-02-13T19:42:32.238Z,99.96
2023-02-13T19:45:17.542Z,99.59
2023-02-13T19:48:02.534Z,99.49
2023-02-13T19:50:48.025Z,98.96
2023-02-13T19:53:33.942Z,98.88
2023-02-13T19:56:19.470Z,98.42
2023-02-13T19:59:06.479Z,98.38
2023-02-13T20:01:51.666Z,98.73
2023-02-13T20:04:36.976Z,99.43
2023-02-13T20:07:22.171Z,100.00
2023-02-13T20:10:08.560Z,100.00
2023-02-13T20:12:54.034Z,100.00
2023-02-13T20:15:40.639Z,100.00
2023-02-13T20:18:25.784Z,100.00
2023-02-13T20:21:16.395Z,100.00
2023-02-13T20:24:02.106Z,100.00
2023-02-13T20:26:47.646Z,100.00
2023-02-13T20:29:32.653Z,100.00
2023-02-13T20:32:18.060Z,100.00
2023-02-13T20:35:03.693Z,100.00
2023-02-13T20:37:48.870Z,100.00
2023-02-13T20:40:34.366Z,100.00
2023-02-13T20:43:20.935Z,100.00
2023-02-13T20:46:07.157Z,100.00
2023-02-13T20:48:52.443Z,100.00
2023-02-13T20:51:37.868Z,100.00
2023-02-13T20:54:23.040Z,100.00
2023-02-13T20:57:08.542Z,100.00
2023-02-13T20:59:53.811Z,100.00
2023-02-13T21:02:39.350Z,100.00
2023-02-13T21:05:24.671Z,100.00
2023-02-13T21:08:10.316Z,100.00
2023-02-13T21:11:01.158Z,100.00
2023-02-13T21:13:47.124Z,100.00
2023-02-13T21:16:38.249Z,100.00
2023-02-13T21:19:23.505Z,100.00
2023-02-13T21:22:08.565Z,100.00
2023-02-13T21:24:54.123Z,100.00
2023-02-13T21:27:39.426Z,100.00
2023-02-13T21:30:24.802Z,100.00
2023-02-13T21:33:10.218Z,100.00
2023-02-13T21:36:07.671Z,100.00
2023-02-13T21:38:53.027Z,100.00
2023-02-13T21:41:43.169Z,100.00
2023-02-13T21:44:28.326Z,100.00
2023-02-13T21:47:13.753Z,100.00
2023-02-13T21:49:59.110Z,100.00
2023-02-13T21:52:44.732Z,100.00
2023-02-13T21:55:30.021Z,100.00
2023-02-13T21:58:15.312Z,100.00
2023-02-13T22:01:01.752Z,100.00
2023-02-13T22:03:48.056Z,100.00
2023-02-13T22:06:35.892Z,100.00
2023-02-13T22:09:21.840Z,100.00
2023-02-13T22:12:07.208Z,100.00
2023-02-13T22:14:54.265Z,100.00
2023-02-13T22:17:39.482Z,100.00
2023-02-13T22:20:25.518Z,100.00
2023-02-13T22:23:10.728Z,100.00
2023-02-13T22:25:56.176Z,100.00
2023-02-13T22:28:41.718Z,100.00
2023-02-13T22:31:27.920Z,100.00
2023-02-13T22:34:13.534Z,100.00
2023-02-13T22:36:58.944Z,100.00
2023-02-13T22:39:44.191Z,100.00
2023-02-13T22:42:29.817Z,100.00
2023-02-13T22:45:15.071Z,100.00
2023-02-13T22:48:00.615Z,100.00
2023-02-13T22:50:45.684Z,100.00
2023-02-13T22:53:31.788Z,100.00
2023-02-13T22:56:17.205Z,100.00
2023-02-13T22:59:02.620Z,100.00
2023-02-13T23:01:48.018Z,100.00
2023-02-13T23:04:33.447Z,100.00
2023-02-13T23:07:18.837Z,100.00
2023-02-13T23:10:04.996Z,100.00
2023-02-13T23:12:49.981Z,100.00
2023-02-13T23:15:36.267Z,100.00
2023-02-13T23:18:21.373Z,100.00
2023-02-13T23:21:07.747Z,100.00
2023-02-13T23:23:53.213Z,100.00
2023-02-13T23:26:38.135Z,100.00
2023-02-13T23:29:23.661Z,100.00
2023-02-13T23:32:09.136Z,100.00
2023-02-13T23:34:54.497Z,100.00
2023-02-13T23:37:39.698Z,100.00
2023-02-13T23:40:24.955Z,100.00
2023-02-13T23:43:10.451Z,100.00
2023-02-13T23:45:55.931Z,100.00
2023-02-13T23:48:41.375Z,100.00
2023-02-13T23:51:26.869Z,100.00
2023-02-13T23:54:17.210Z,100.00
2023-02-13T23:57:02.562Z,100.00
2023-02-13T23:59:47.464Z,100.00
